Des Moines, Washington
Current Conditions -  °F | °C
As of 7:53 AM on Saturday 25 Oct 2014 (Local Time) from KSEA Reporting Station
Overcast Overcast  
Wind Chill: 50°   Ceiling: 7500
Heat Index: 50°   Visibility: 10mi
Dew Point: 48°   Wind: 8mph
Humidity: 93%   Direction: 230°SW
Pressure: 29.57"   Gusts: NA
Location:  47.41°N, 122.31°W
Report Text: KSEA 251453Z 23007KT 10SM OVC075 10/09 A2957 RMK AO2 SLP018 T01000089 53015
Loading
Personal Weather Stations






























Interactive Weather Map
Tropical Storm Tracking
New forecast layout! Learn more

10-Day Weather Forecast

Advertisements
Track Severe Weather on mobile